sensor_id;sensor_type;location;lat;lon;timestamp;P1;P2;P0
78063;PMS5003;67429;51.596;-3.264;2023-03-14T00:02:01;2;2;
78063;PMS5003;67429;51.596;-3.264;2023-03-14T00:04:27;2;2;
78063;PMS5003;67429;51.596;-3.264;2023-03-14T00:06:53;1;1;
78063;PMS5003;67429;51.596;-3.264;2023-03-14T00:09:18;4;2;
78063;PMS5003;67429;51.596;-3.264;2023-03-14T00:11:44;3;3;
78063;PMS5003;67429;51.596;-3.264;2023-03-14T00:14:09;3;2;
78063;PMS5003;67429;51.596;-3.264;2023-03-14T00:16:35;3;3;
78063;PMS5003;67429;51.596;-3.264;2023-03-14T00:19:01;1;1;
78063;PMS5003;67429;51.596;-3.264;2023-03-14T00:21:27;4;4;
78063;PMS5003;67429;51.596;-3.264;2023-03-14T00:23:53;4;3;
78063;PMS5003;67429;51.596;-3.264;2023-03-14T00:26:18;3;3;
78063;PMS5003;67429;51.596;-3.264;2023-03-14T00:28:44;4;4;
78063;PMS5003;67429;51.596;-3.264;2023-03-14T00:31:10;2;2;
78063;PMS5003;67429;51.596;-3.264;2023-03-14T00:33:35;2;1;
78063;PMS5003;67429;51.596;-3.264;2023-03-14T00:36:02;2;2;
78063;PMS5003;67429;51.596;-3.264;2023-03-14T00:38:27;1;1;
78063;PMS5003;67429;51.596;-3.264;2023-03-14T00:40:53;4;3;
78063;PMS5003;67429;51.596;-3.264;2023-03-14T00:43:18;3;3;
78063;PMS5003;67429;51.596;-3.264;2023-03-14T00:45:44;3;3;
78063;PMS5003;67429;51.596;-3.264;2023-03-14T00:48:09;2;2;
78063;PMS5003;67429;51.596;-3.264;2023-03-14T00:50:35;2;1;
78063;PMS5003;67429;51.596;-3.264;2023-03-14T00:53:01;1;1;
78063;PMS5003;67429;51.596;-3.264;2023-03-14T00:55:27;2;2;
78063;PMS5003;67429;51.596;-3.264;2023-03-14T00:57:53;3;2;
78063;PMS5003;67429;51.596;-3.264;2023-03-14T01:00:18;1;1;
78063;PMS5003;67429;51.596;-3.264;2023-03-14T01:02:44;4;2;
78063;PMS5003;67429;51.596;-3.264;2023-03-14T01:05:10;3;2;
78063;PMS5003;67429;51.596;-3.264;2023-03-14T01:07:35;1;1;
78063;PMS5003;67429;51.596;-3.264;2023-03-14T01:10:01;1;1;
78063;PMS5003;67429;51.596;-3.264;2023-03-14T01:12:27;3;2;
78063;PMS5003;67429;51.596;-3.264;2023-03-14T01:14:53;2;2;
78063;PMS5003;67429;51.596;-3.264;2023-03-14T01:17:18;2;2;
78063;PMS5003;67429;51.596;-3.264;2023-03-14T01:19:43;1;1;
78063;PMS5003;67429;51.596;-3.264;2023-03-14T01:22:09;3;3;
78063;PMS5003;67429;51.596;-3.264;2023-03-14T01:24:36;1;1;
78063;PMS5003;67429;51.596;-3.264;2023-03-14T01:27:01;1;1;
78063;PMS5003;67429;51.596;-3.264;2023-03-14T01:29:27;1;1;
78063;PMS5003;67429;51.596;-3.264;2023-03-14T01:31:53;1;1;
78063;PMS5003;67429;51.596;-3.264;2023-03-14T01:34:18;3;2;
78063;PMS5003;67429;51.596;-3.264;2023-03-14T01:36:44;2;2;
78063;PMS5003;67429;51.596;-3.264;2023-03-14T01:39:10;3;3;
78063;PMS5003;67429;51.596;-3.264;2023-03-14T01:41:36;1;1;
78063;PMS5003;67429;51.596;-3.264;2023-03-14T01:44:01;2;1;
78063;PMS5003;67429;51.596;-3.264;2023-03-14T01:46:30;2;1;
78063;PMS5003;67429;51.596;-3.264;2023-03-14T01:48:55;6;6;
78063;PMS5003;67429;51.596;-3.264;2023-03-14T01:51:19;1;1;
78063;PMS5003;67429;51.596;-3.264;2023-03-14T01:53:44;0;0;
78063;PMS5003;67429;51.596;-3.264;2023-03-14T01:56:11;0;0;
78063;PMS5003;67429;51.596;-3.264;2023-03-14T01:58:36;1;1;
78063;PMS5003;67429;51.596;-3.264;2023-03-14T02:01:02;2;2;
78063;PMS5003;67429;51.596;-3.264;2023-03-14T02:03:27;2;1;
78063;PMS5003;67429;51.596;-3.264;2023-03-14T02:05:53;3;2;
78063;PMS5003;67429;51.596;-3.264;2023-03-14T02:08:19;3;3;
78063;PMS5003;67429;51.596;-3.264;2023-03-14T02:10:46;1;1;
78063;PMS5003;67429;51.596;-3.264;2023-03-14T02:13:10;2;2;
78063;PMS5003;67429;51.596;-3.264;2023-03-14T02:15:36;2;2;
78063;PMS5003;67429;51.596;-3.264;2023-03-14T02:18:02;2;2;
78063;PMS5003;67429;51.596;-3.264;2023-03-14T02:20:30;1;1;
78063;PMS5003;67429;51.596;-3.264;2023-03-14T02:22:53;2;1;
78063;PMS5003;67429;51.596;-3.264;2023-03-14T02:25:21;2;2;
78063;PMS5003;67429;51.596;-3.264;2023-03-14T02:27:45;2;2;
78063;PMS5003;67429;51.596;-3.264;2023-03-14T02:30:12;1;1;
78063;PMS5003;67429;51.596;-3.264;2023-03-14T02:32:37;2;2;
78063;PMS5003;67429;51.596;-3.264;2023-03-14T02:35:03;1;1;
78063;PMS5003;67429;51.596;-3.264;2023-03-14T02:37:30;2;1;
78063;PMS5003;67429;51.596;-3.264;2023-03-14T02:39:54;1;0;
78063;PMS5003;67429;51.596;-3.264;2023-03-14T02:42:20;1;1;
78063;PMS5003;67429;51.596;-3.264;2023-03-14T02:44:48;2;2;
78063;PMS5003;67429;51.596;-3.264;2023-03-14T02:47:11;1;1;
78063;PMS5003;67429;51.596;-3.264;2023-03-14T02:49:37;3;2;
78063;PMS5003;67429;51.596;-3.264;2023-03-14T02:52:03;2;2;
78063;PMS5003;67429;51.596;-3.264;2023-03-14T02:54:29;2;2;
78063;PMS5003;67429;51.596;-3.264;2023-03-14T02:56:54;1;1;
78063;PMS5003;67429;51.596;-3.264;2023-03-14T02:59:20;2;2;
78063;PMS5003;67429;51.596;-3.264;2023-03-14T03:01:46;1;1;
78063;PMS5003;67429;51.596;-3.264;2023-03-14T03:04:11;1;1;
78063;PMS5003;67429;51.596;-3.264;2023-03-14T03:06:37;2;1;
78063;PMS5003;67429;51.596;-3.264;2023-03-14T03:09:03;1;1;
78063;PMS5003;67429;51.596;-3.264;2023-03-14T03:11:28;2;1;
78063;PMS5003;67429;51.596;-3.264;2023-03-14T03:13:54;2;1;
78063;PMS5003;67429;51.596;-3.264;2023-03-14T03:16:20;2;2;
78063;PMS5003;67429;51.596;-3.264;2023-03-14T03:18:46;2;1;
78063;PMS5003;67429;51.596;-3.264;2023-03-14T03:21:12;4;2;
78063;PMS5003;67429;51.596;-3.264;2023-03-14T03:23:38;0;0;
78063;PMS5003;67429;51.596;-3.264;2023-03-14T03:26:03;2;1;
78063;PMS5003;67429;51.596;-3.264;2023-03-14T03:28:29;1;1;
78063;PMS5003;67429;51.596;-3.264;2023-03-14T03:30:55;2;2;
78063;PMS5003;67429;51.596;-3.264;2023-03-14T03:33:21;4;2;
78063;PMS5003;67429;51.596;-3.264;2023-03-14T03:35:47;1;1;
78063;PMS5003;67429;51.596;-3.264;2023-03-14T03:38:12;2;2;
78063;PMS5003;67429;51.596;-3.264;2023-03-14T03:40:38;1;1;
78063;PMS5003;67429;51.596;-3.264;2023-03-14T03:43:04;1;1;
78063;PMS5003;67429;51.596;-3.264;2023-03-14T03:45:30;1;1;
78063;PMS5003;67429;51.596;-3.264;2023-03-14T03:47:55;2;1;
78063;PMS5003;67429;51.596;-3.264;2023-03-14T03:50:21;1;1;
78063;PMS5003;67429;51.596;-3.264;2023-03-14T03:52:47;2;1;
78063;PMS5003;67429;51.596;-3.264;2023-03-14T03:55:13;1;1;
78063;PMS5003;67429;51.596;-3.264;2023-03-14T03:57:39;2;2;
78063;PMS5003;67429;51.596;-3.264;2023-03-14T04:00:04;3;3;
78063;PMS5003;67429;51.596;-3.264;2023-03-14T04:02:29;1;1;
78063;PMS5003;67429;51.596;-3.264;2023-03-14T04:04:55;1;1;
78063;PMS5003;67429;51.596;-3.264;2023-03-14T04:07:21;2;2;
78063;PMS5003;67429;51.596;-3.264;2023-03-14T04:09:46;2;2;
78063;PMS5003;67429;51.596;-3.264;2023-03-14T04:12:12;1;1;
78063;PMS5003;67429;51.596;-3.264;2023-03-14T04:14:38;1;1;
78063;PMS5003;67429;51.596;-3.264;2023-03-14T04:17:04;1;1;
78063;PMS5003;67429;51.596;-3.264;2023-03-14T04:19:29;2;1;
78063;PMS5003;67429;51.596;-3.264;2023-03-14T04:21:55;1;1;
78063;PMS5003;67429;51.596;-3.264;2023-03-14T04:24:21;2;1;
78063;PMS5003;67429;51.596;-3.264;2023-03-14T04:26:47;2;2;
78063;PMS5003;67429;51.596;-3.264;2023-03-14T04:29:13;3;1;
78063;PMS5003;67429;51.596;-3.264;2023-03-14T04:31:38;1;0;
78063;PMS5003;67429;51.596;-3.264;2023-03-14T04:34:04;1;1;
78063;PMS5003;67429;51.596;-3.264;2023-03-14T04:36:30;1;1;
78063;PMS5003;67429;51.596;-3.264;2023-03-14T04:38:56;1;1;
78063;PMS5003;67429;51.596;-3.264;2023-03-14T04:41:22;1;1;
78063;PMS5003;67429;51.596;-3.264;2023-03-14T04:43:47;2;2;
78063;PMS5003;67429;51.596;-3.264;2023-03-14T04:46:13;0;0;
78063;PMS5003;67429;51.596;-3.264;2023-03-14T04:48:39;2;2;
78063;PMS5003;67429;51.596;-3.264;2023-03-14T04:51:05;1;1;
78063;PMS5003;67429;51.596;-3.264;2023-03-14T04:53:31;1;1;
78063;PMS5003;67429;51.596;-3.264;2023-03-14T04:55:57;1;1;
78063;PMS5003;67429;51.596;-3.264;2023-03-14T04:58:23;2;1;
78063;PMS5003;67429;51.596;-3.264;2023-03-14T05:00:48;1;1;
78063;PMS5003;67429;51.596;-3.264;2023-03-14T05:03:14;3;3;
78063;PMS5003;67429;51.596;-3.264;2023-03-14T05:05:40;1;1;
78063;PMS5003;67429;51.596;-3.264;2023-03-14T05:08:06;1;1;
78063;PMS5003;67429;51.596;-3.264;2023-03-14T05:10:32;1;1;
78063;PMS5003;67429;51.596;-3.264;2023-03-14T05:12:57;1;1;
78063;PMS5003;67429;51.596;-3.264;2023-03-14T05:15:23;1;1;
78063;PMS5003;67429;51.596;-3.264;2023-03-14T05:17:49;2;2;
78063;PMS5003;67429;51.596;-3.264;2023-03-14T05:20:15;2;1;
78063;PMS5003;67429;51.596;-3.264;2023-03-14T05:22:40;2;1;
78063;PMS5003;67429;51.596;-3.264;2023-03-14T05:25:07;0;0;
78063;PMS5003;67429;51.596;-3.264;2023-03-14T05:27:32;1;1;
78063;PMS5003;67429;51.596;-3.264;2023-03-14T05:29:57;7;5;
78063;PMS5003;67429;51.596;-3.264;2023-03-14T05:32:23;1;1;
78063;PMS5003;67429;51.596;-3.264;2023-03-14T05:34:48;0;0;
78063;PMS5003;67429;51.596;-3.264;2023-03-14T05:37:14;1;1;
78063;PMS5003;67429;51.596;-3.264;2023-03-14T05:39:40;0;0;
78063;PMS5003;67429;51.596;-3.264;2023-03-14T05:42:06;3;2;
78063;PMS5003;67429;51.596;-3.264;2023-03-14T05:44:32;1;1;
78063;PMS5003;67429;51.596;-3.264;2023-03-14T05:46:57;2;1;
78063;PMS5003;67429;51.596;-3.264;2023-03-14T05:49:23;1;1;
78063;PMS5003;67429;51.596;-3.264;2023-03-14T05:51:49;1;1;
78063;PMS5003;67429;51.596;-3.264;2023-03-14T05:54:15;1;1;
78063;PMS5003;67429;51.596;-3.264;2023-03-14T05:56:41;2;2;
78063;PMS5003;67429;51.596;-3.264;2023-03-14T05:59:06;1;1;
78063;PMS5003;67429;51.596;-3.264;2023-03-14T06:01:32;0;0;
78063;PMS5003;67429;51.596;-3.264;2023-03-14T06:03:58;1;0;
78063;PMS5003;67429;51.596;-3.264;2023-03-14T06:06:24;3;2;
78063;PMS5003;67429;51.596;-3.264;2023-03-14T06:08:50;0;0;
78063;PMS5003;67429;51.596;-3.264;2023-03-14T06:11:15;1;0;
78063;PMS5003;67429;51.596;-3.264;2023-03-14T06:13:41;3;2;
78063;PMS5003;67429;51.596;-3.264;2023-03-14T06:16:07;0;0;
78063;PMS5003;67429;51.596;-3.264;2023-03-14T06:18:33;0;0;
78063;PMS5003;67429;51.596;-3.264;2023-03-14T06:20:59;0;0;
78063;PMS5003;67429;51.596;-3.264;2023-03-14T06:23:24;1;0;
78063;PMS5003;67429;51.596;-3.264;2023-03-14T06:25:50;1;1;
78063;PMS5003;67429;51.596;-3.264;2023-03-14T06:28:15;1;0;
78063;PMS5003;67429;51.596;-3.264;2023-03-14T06:30:40;0;0;
78063;PMS5003;67429;51.596;-3.264;2023-03-14T06:33:05;1;1;
78063;PMS5003;67429;51.596;-3.264;2023-03-14T06:35:31;2;2;
78063;PMS5003;67429;51.596;-3.264;2023-03-14T06:37:56;3;2;
78063;PMS5003;67429;51.596;-3.264;2023-03-14T06:40:22;2;1;
78063;PMS5003;67429;51.596;-3.264;2023-03-14T06:42:47;1;1;
78063;PMS5003;67429;51.596;-3.264;2023-03-14T06:45:13;1;1;
78063;PMS5003;67429;51.596;-3.264;2023-03-14T06:47:38;0;0;
78063;PMS5003;67429;51.596;-3.264;2023-03-14T06:50:04;1;1;
78063;PMS5003;67429;51.596;-3.264;2023-03-14T06:52:29;0;0;
78063;PMS5003;67429;51.596;-3.264;2023-03-14T06:54:55;1;1;
78063;PMS5003;67429;51.596;-3.264;2023-03-14T06:57:21;0;0;
78063;PMS5003;67429;51.596;-3.264;2023-03-14T06:59:47;1;0;
78063;PMS5003;67429;51.596;-3.264;2023-03-14T07:02:13;1;0;
78063;PMS5003;67429;51.596;-3.264;2023-03-14T07:04:38;0;0;
78063;PMS5003;67429;51.596;-3.264;2023-03-14T07:07:04;0;0;
78063;PMS5003;67429;51.596;-3.264;2023-03-14T07:09:30;1;1;
78063;PMS5003;67429;51.596;-3.264;2023-03-14T07:11:56;1;1;
78063;PMS5003;67429;51.596;-3.264;2023-03-14T07:14:22;1;1;
78063;PMS5003;67429;51.596;-3.264;2023-03-14T07:16:48;0;0;
78063;PMS5003;67429;51.596;-3.264;2023-03-14T07:19:13;0;0;
78063;PMS5003;67429;51.596;-3.264;2023-03-14T07:21:39;1;1;
78063;PMS5003;67429;51.596;-3.264;2023-03-14T07:24:05;1;1;
78063;PMS5003;67429;51.596;-3.264;2023-03-14T07:26:31;1;1;
78063;PMS5003;67429;51.596;-3.264;2023-03-14T07:28:57;1;1;
78063;PMS5003;67429;51.596;-3.264;2023-03-14T07:31:23;1;1;
78063;PMS5003;67429;51.596;-3.264;2023-03-14T07:33:48;1;1;
78063;PMS5003;67429;51.596;-3.264;2023-03-14T07:36:15;1;1;
78063;PMS5003;67429;51.596;-3.264;2023-03-14T07:38:40;2;2;
78063;PMS5003;67429;51.596;-3.264;2023-03-14T07:41:06;1;1;
78063;PMS5003;67429;51.596;-3.264;2023-03-14T07:43:32;0;0;
78063;PMS5003;67429;51.596;-3.264;2023-03-14T07:45:57;2;2;
78063;PMS5003;67429;51.596;-3.264;2023-03-14T07:48:23;0;0;
78063;PMS5003;67429;51.596;-3.264;2023-03-14T07:50:49;1;1;
78063;PMS5003;67429;51.596;-3.264;2023-03-14T07:53:15;1;0;
78063;PMS5003;67429;51.596;-3.264;2023-03-14T07:55:40;0;0;
78063;PMS5003;67429;51.596;-3.264;2023-03-14T07:58:06;1;1;
78063;PMS5003;67429;51.596;-3.264;2023-03-14T08:00:32;3;2;
78063;PMS5003;67429;51.596;-3.264;2023-03-14T08:02:58;0;0;
78063;PMS5003;67429;51.596;-3.264;2023-03-14T08:05:23;0;0;
78063;PMS5003;67429;51.596;-3.264;2023-03-14T08:07:49;0;0;
78063;PMS5003;67429;51.596;-3.264;2023-03-14T08:10:15;0;0;
78063;PMS5003;67429;51.596;-3.264;2023-03-14T08:12:41;0;0;
78063;PMS5003;67429;51.596;-3.264;2023-03-14T08:15:07;1;1;
78063;PMS5003;67429;51.596;-3.264;2023-03-14T08:17:32;0;0;
78063;PMS5003;67429;51.596;-3.264;2023-03-14T08:19:58;0;0;
78063;PMS5003;67429;51.596;-3.264;2023-03-14T08:22:24;1;0;
78063;PMS5003;67429;51.596;-3.264;2023-03-14T08:24:49;0;0;
78063;PMS5003;67429;51.596;-3.264;2023-03-14T08:27:15;0;0;
78063;PMS5003;67429;51.596;-3.264;2023-03-14T08:29:41;0;0;
78063;PMS5003;67429;51.596;-3.264;2023-03-14T08:32:06;0;0;
78063;PMS5003;67429;51.596;-3.264;2023-03-14T08:34:32;0;0;
78063;PMS5003;67429;51.596;-3.264;2023-03-14T08:36:58;1;0;
78063;PMS5003;67429;51.596;-3.264;2023-03-14T08:39:24;0;0;
78063;PMS5003;67429;51.596;-3.264;2023-03-14T08:41:49;0;0;
78063;PMS5003;67429;51.596;-3.264;2023-03-14T08:44:15;0;0;
78063;PMS5003;67429;51.596;-3.264;2023-03-14T08:46:40;0;0;
78063;PMS5003;67429;51.596;-3.264;2023-03-14T08:49:06;0;0;
78063;PMS5003;67429;51.596;-3.264;2023-03-14T08:51:32;0;0;
78063;PMS5003;67429;51.596;-3.264;2023-03-14T08:53:58;1;1;
78063;PMS5003;67429;51.596;-3.264;2023-03-14T08:56:23;1;0;
78063;PMS5003;67429;51.596;-3.264;2023-03-14T08:58:49;0;0;
78063;PMS5003;67429;51.596;-3.264;2023-03-14T09:01:15;5;4;
78063;PMS5003;67429;51.596;-3.264;2023-03-14T09:03:40;0;0;
78063;PMS5003;67429;51.596;-3.264;2023-03-14T09:06:07;2;2;
78063;PMS5003;67429;51.596;-3.264;2023-03-14T09:08:32;1;1;
78063;PMS5003;67429;51.596;-3.264;2023-03-14T09:10:57;1;0;
78063;PMS5003;67429;51.596;-3.264;2023-03-14T09:13:23;1;0;
78063;PMS5003;67429;51.596;-3.264;2023-03-14T09:15:50;1;1;
78063;PMS5003;67429;51.596;-3.264;2023-03-14T09:18:16;1;1;
78063;PMS5003;67429;51.596;-3.264;2023-03-14T09:20:40;0;0;
78063;PMS5003;67429;51.596;-3.264;2023-03-14T09:23:06;0;0;
78063;PMS5003;67429;51.596;-3.264;2023-03-14T09:25:32;0;0;
78063;PMS5003;67429;51.596;-3.264;2023-03-14T09:27:57;0;0;
78063;PMS5003;67429;51.596;-3.264;2023-03-14T09:30:23;0;0;
78063;PMS5003;67429;51.596;-3.264;2023-03-14T09:32:49;0;0;
78063;PMS5003;67429;51.596;-3.264;2023-03-14T09:35:15;0;0;
78063;PMS5003;67429;51.596;-3.264;2023-03-14T09:37:40;2;0;
78063;PMS5003;67429;51.596;-3.264;2023-03-14T09:40:06;0;0;
78063;PMS5003;67429;51.596;-3.264;2023-03-14T09:42:32;0;0;
78063;PMS5003;67429;51.596;-3.264;2023-03-14T09:44:59;1;0;
78063;PMS5003;67429;51.596;-3.264;2023-03-14T09:47:23;0;0;
78063;PMS5003;67429;51.596;-3.264;2023-03-14T09:49:49;0;0;
78063;PMS5003;67429;51.596;-3.264;2023-03-14T09:52:16;0;0;
78063;PMS5003;67429;51.596;-3.264;2023-03-14T09:54:42;0;0;
78063;PMS5003;67429;51.596;-3.264;2023-03-14T09:57:06;0;0;
78063;PMS5003;67429;51.596;-3.264;2023-03-14T09:59:32;1;0;
78063;PMS5003;67429;51.596;-3.264;2023-03-14T10:01:58;0;0;
78063;PMS5003;67429;51.596;-3.264;2023-03-14T10:04:23;1;1;
78063;PMS5003;67429;51.596;-3.264;2023-03-14T10:06:48;1;1;
78063;PMS5003;67429;51.596;-3.264;2023-03-14T10:09:15;0;0;
78063;PMS5003;67429;51.596;-3.264;2023-03-14T10:11:40;2;1;
78063;PMS5003;67429;51.596;-3.264;2023-03-14T10:14:06;0;0;
78063;PMS5003;67429;51.596;-3.264;2023-03-14T10:16:32;1;1;
78063;PMS5003;67429;51.596;-3.264;2023-03-14T10:19:01;0;0;
78063;PMS5003;67429;51.596;-3.264;2023-03-14T10:21:25;0;0;
78063;PMS5003;67429;51.596;-3.264;2023-03-14T10:23:48;1;1;
78063;PMS5003;67429;51.596;-3.264;2023-03-14T10:26:15;1;1;
78063;PMS5003;67429;51.596;-3.264;2023-03-14T10:28:42;0;0;
78063;PMS5003;67429;51.596;-3.264;2023-03-14T10:31:06;0;0;
78063;PMS5003;67429;51.596;-3.264;2023-03-14T10:33:32;1;1;
78063;PMS5003;67429;51.596;-3.264;2023-03-14T10:35:57;0;0;
78063;PMS5003;67429;51.596;-3.264;2023-03-14T10:38:23;0;0;
78063;PMS5003;67429;51.596;-3.264;2023-03-14T10:40:49;0;0;
78063;PMS5003;67429;51.596;-3.264;2023-03-14T10:43:15;0;0;
78063;PMS5003;67429;51.596;-3.264;2023-03-14T10:45:40;0;0;
78063;PMS5003;67429;51.596;-3.264;2023-03-14T10:48:06;0;0;
78063;PMS5003;67429;51.596;-3.264;2023-03-14T10:50:31;2;1;
78063;PMS5003;67429;51.596;-3.264;2023-03-14T10:52:57;2;2;
78063;PMS5003;67429;51.596;-3.264;2023-03-14T10:55:23;1;1;
78063;PMS5003;67429;51.596;-3.264;2023-03-14T10:57:48;1;0;
78063;PMS5003;67429;51.596;-3.264;2023-03-14T11:00:15;0;0;
78063;PMS5003;67429;51.596;-3.264;2023-03-14T11:02:43;1;1;
78063;PMS5003;67429;51.596;-3.264;2023-03-14T11:05:09;0;0;
78063;PMS5003;67429;51.596;-3.264;2023-03-14T11:07:32;1;1;
78063;PMS5003;67429;51.596;-3.264;2023-03-14T11:09:57;1;1;
78063;PMS5003;67429;51.596;-3.264;2023-03-14T11:12:28;1;1;
78063;PMS5003;67429;51.596;-3.264;2023-03-14T11:14:48;0;0;
78063;PMS5003;67429;51.596;-3.264;2023-03-14T11:17:14;1;1;
78063;PMS5003;67429;51.596;-3.264;2023-03-14T11:19:42;1;1;
78063;PMS5003;67429;51.596;-3.264;2023-03-14T11:22:05;0;0;
78063;PMS5003;67429;51.596;-3.264;2023-03-14T11:24:34;1;0;
78063;PMS5003;67429;51.596;-3.264;2023-03-14T11:26:57;0;0;
78063;PMS5003;67429;51.596;-3.264;2023-03-14T11:29:22;1;1;
78063;PMS5003;67429;51.596;-3.264;2023-03-14T11:31:47;2;1;
78063;PMS5003;67429;51.596;-3.264;2023-03-14T11:34:14;2;1;
78063;PMS5003;67429;51.596;-3.264;2023-03-14T11:36:39;0;0;
78063;PMS5003;67429;51.596;-3.264;2023-03-14T11:39:04;2;1;
78063;PMS5003;67429;51.596;-3.264;2023-03-14T11:41:30;0;0;
78063;PMS5003;67429;51.596;-3.264;2023-03-14T11:43:55;0;0;
78063;PMS5003;67429;51.596;-3.264;2023-03-14T11:46:21;0;0;
78063;PMS5003;67429;51.596;-3.264;2023-03-14T11:48:50;1;1;
78063;PMS5003;67429;51.596;-3.264;2023-03-14T11:51:14;1;1;
78063;PMS5003;67429;51.596;-3.264;2023-03-14T11:53:40;2;2;
78063;PMS5003;67429;51.596;-3.264;2023-03-14T11:56:03;2;2;
78063;PMS5003;67429;51.596;-3.264;2023-03-14T11:58:29;2;2;
78063;PMS5003;67429;51.596;-3.264;2023-03-14T12:00:55;2;2;
78063;PMS5003;67429;51.596;-3.264;2023-03-14T12:03:23;4;2;
78063;PMS5003;67429;51.596;-3.264;2023-03-14T12:05:47;0;0;
78063;PMS5003;67429;51.596;-3.264;2023-03-14T12:10:37;1;1;
78063;PMS5003;67429;51.596;-3.264;2023-03-14T12:13:03;2;1;
78063;PMS5003;67429;51.596;-3.264;2023-03-14T12:15:28;1;1;
78063;PMS5003;67429;51.596;-3.264;2023-03-14T12:17:54;2;1;
78063;PMS5003;67429;51.596;-3.264;2023-03-14T12:20:20;1;1;
78063;PMS5003;67429;51.596;-3.264;2023-03-14T12:22:45;2;2;
78063;PMS5003;67429;51.596;-3.264;2023-03-14T12:25:14;1;1;
78063;PMS5003;67429;51.596;-3.264;2023-03-14T12:27:41;1;1;
78063;PMS5003;67429;51.596;-3.264;2023-03-14T12:30:02;1;1;
78063;PMS5003;67429;51.596;-3.264;2023-03-14T12:32:27;1;1;
78063;PMS5003;67429;51.596;-3.264;2023-03-14T12:34:54;1;1;
78063;PMS5003;67429;51.596;-3.264;2023-03-14T12:37:23;1;1;
78063;PMS5003;67429;51.596;-3.264;2023-03-14T12:39:47;1;1;
78063;PMS5003;67429;51.596;-3.264;2023-03-14T12:42:11;1;1;
78063;PMS5003;67429;51.596;-3.264;2023-03-14T12:44:41;1;1;
78063;PMS5003;67429;51.596;-3.264;2023-03-14T12:49:29;1;0;
78063;PMS5003;67429;51.596;-3.264;2023-03-14T12:51:53;1;1;
78063;PMS5003;67429;51.596;-3.264;2023-03-14T12:54:21;1;1;
78063;PMS5003;67429;51.596;-3.264;2023-03-14T12:56:52;2;2;
78063;PMS5003;67429;51.596;-3.264;2023-03-14T12:59:18;3;2;
78063;PMS5003;67429;51.596;-3.264;2023-03-14T13:01:34;1;1;
78063;PMS5003;67429;51.596;-3.264;2023-03-14T13:04:02;1;1;
78063;PMS5003;67429;51.596;-3.264;2023-03-14T13:08:51;4;2;
78063;PMS5003;67429;51.596;-3.264;2023-03-14T13:11:18;0;0;
78063;PMS5003;67429;51.596;-3.264;2023-03-14T13:13:45;4;3;
78063;PMS5003;67429;51.596;-3.264;2023-03-14T13:16:09;3;2;
78063;PMS5003;67429;51.596;-3.264;2023-03-14T13:18:34;1;0;
78063;PMS5003;67429;51.596;-3.264;2023-03-14T13:21:01;1;1;
78063;PMS5003;67429;51.596;-3.264;2023-03-14T13:23:25;3;2;
78063;PMS5003;67429;51.596;-3.264;2023-03-14T13:25:51;2;2;
78063;PMS5003;67429;51.596;-3.264;2023-03-14T13:28:16;2;2;
78063;PMS5003;67429;51.596;-3.264;2023-03-14T13:30:43;1;1;
78063;PMS5003;67429;51.596;-3.264;2023-03-14T13:33:11;1;0;
78063;PMS5003;67429;51.596;-3.264;2023-03-14T13:37:59;2;2;
78063;PMS5003;67429;51.596;-3.264;2023-03-14T13:40:25;0;0;
78063;PMS5003;67429;51.596;-3.264;2023-03-14T13:42:49;1;1;
78063;PMS5003;67429;51.596;-3.264;2023-03-14T13:45:15;0;0;
78063;PMS5003;67429;51.596;-3.264;2023-03-14T13:47:40;1;0;
78063;PMS5003;67429;51.596;-3.264;2023-03-14T13:52:35;1;1;
78063;PMS5003;67429;51.596;-3.264;2023-03-14T13:54:59;1;1;
78063;PMS5003;67429;51.596;-3.264;2023-03-14T13:57:23;0;0;
78063;PMS5003;67429;51.596;-3.264;2023-03-14T14:02:14;0;0;
78063;PMS5003;67429;51.596;-3.264;2023-03-14T14:04:40;1;1;
78063;PMS5003;67429;51.596;-3.264;2023-03-14T14:07:06;0;0;
78063;PMS5003;67429;51.596;-3.264;2023-03-14T14:09:35;0;0;
78063;PMS5003;67429;51.596;-3.264;2023-03-14T14:11:58;1;0;
78063;PMS5003;67429;51.596;-3.264;2023-03-14T14:14:23;1;0;
78063;PMS5003;67429;51.596;-3.264;2023-03-14T14:16:48;0;0;
78063;PMS5003;67429;51.596;-3.264;2023-03-14T14:19:14;0;0;
78063;PMS5003;67429;51.596;-3.264;2023-03-14T14:21:39;1;1;
78063;PMS5003;67429;51.596;-3.264;2023-03-14T14:24:05;1;0;
78063;PMS5003;67429;51.596;-3.264;2023-03-14T14:26:30;0;0;
78063;PMS5003;67429;51.596;-3.264;2023-03-14T14:29:00;0;0;
78063;PMS5003;67429;51.596;-3.264;2023-03-14T14:31:22;0;0;
78063;PMS5003;67429;51.596;-3.264;2023-03-14T14:36:15;0;0;
78063;PMS5003;67429;51.596;-3.264;2023-03-14T14:38:38;0;0;
78063;PMS5003;67429;51.596;-3.264;2023-03-14T14:41:04;2;1;
78063;PMS5003;67429;51.596;-3.264;2023-03-14T14:43:30;2;2;
78063;PMS5003;67429;51.596;-3.264;2023-03-14T14:45:55;1;1;
78063;PMS5003;67429;51.596;-3.264;2023-03-14T14:48:22;1;0;
78063;PMS5003;67429;51.596;-3.264;2023-03-14T14:50:49;1;1;
78063;PMS5003;67429;51.596;-3.264;2023-03-14T14:53:20;1;0;
78063;PMS5003;67429;51.596;-3.264;2023-03-14T14:55:39;1;1;
78063;PMS5003;67429;51.596;-3.264;2023-03-14T14:58:13;2;1;
78063;PMS5003;67429;51.596;-3.264;2023-03-14T15:00:29;1;1;
78063;PMS5003;67429;51.596;-3.264;2023-03-14T15:02:55;0;0;
78063;PMS5003;67429;51.596;-3.264;2023-03-14T15:05:21;1;1;
78063;PMS5003;67429;51.596;-3.264;2023-03-14T15:07:46;1;1;
78063;PMS5003;67429;51.596;-3.264;2023-03-14T15:10:12;1;1;
78063;PMS5003;67429;51.596;-3.264;2023-03-14T15:12:37;2;1;
78063;PMS5003;67429;51.596;-3.264;2023-03-14T15:15:03;1;1;
78063;PMS5003;67429;51.596;-3.264;2023-03-14T15:17:28;1;1;
78063;PMS5003;67429;51.596;-3.264;2023-03-14T15:19:54;2;2;
78063;PMS5003;67429;51.596;-3.264;2023-03-14T15:22:19;4;3;
78063;PMS5003;67429;51.596;-3.264;2023-03-14T15:24:45;2;2;
78063;PMS5003;67429;51.596;-3.264;2023-03-14T15:27:13;3;3;
78063;PMS5003;67429;51.596;-3.264;2023-03-14T15:29:36;2;2;
78063;PMS5003;67429;51.596;-3.264;2023-03-14T15:32:02;1;1;
78063;PMS5003;67429;51.596;-3.264;2023-03-14T15:34:28;3;2;
78063;PMS5003;67429;51.596;-3.264;2023-03-14T15:36:53;4;4;
78063;PMS5003;67429;51.596;-3.264;2023-03-14T15:39:19;4;4;
78063;PMS5003;67429;51.596;-3.264;2023-03-14T15:41:44;4;4;
78063;PMS5003;67429;51.596;-3.264;2023-03-14T15:44:10;4;4;
78063;PMS5003;67429;51.596;-3.264;2023-03-14T15:46:36;3;3;
78063;PMS5003;67429;51.596;-3.264;2023-03-14T15:49:02;5;5;
78063;PMS5003;67429;51.596;-3.264;2023-03-14T15:51:27;8;7;
78063;PMS5003;67429;51.596;-3.264;2023-03-14T15:53:52;8;8;
78063;PMS5003;67429;51.596;-3.264;2023-03-14T15:56:18;7;7;
78063;PMS5003;67429;51.596;-3.264;2023-03-14T15:58:44;6;6;
78063;PMS5003;67429;51.596;-3.264;2023-03-14T16:01:09;7;5;
78063;PMS5003;67429;51.596;-3.264;2023-03-14T16:03:35;9;8;
78063;PMS5003;67429;51.596;-3.264;2023-03-14T16:06:01;7;6;
78063;PMS5003;67429;51.596;-3.264;2023-03-14T16:08:26;8;5;
78063;PMS5003;67429;51.596;-3.264;2023-03-14T16:10:52;9;9;
78063;PMS5003;67429;51.596;-3.264;2023-03-14T16:13:17;7;6;
78063;PMS5003;67429;51.596;-3.264;2023-03-14T16:18:08;10;10;
78063;PMS5003;67429;51.596;-3.264;2023-03-14T16:20:34;6;6;
78063;PMS5003;67429;51.596;-3.264;2023-03-14T16:22:59;6;6;
78063;PMS5003;67429;51.596;-3.264;2023-03-14T16:25:25;5;4;
78063;PMS5003;67429;51.596;-3.264;2023-03-14T16:27:51;6;5;
78063;PMS5003;67429;51.596;-3.264;2023-03-14T16:30:17;8;8;
78063;PMS5003;67429;51.596;-3.264;2023-03-14T16:32:44;2;2;
78063;PMS5003;67429;51.596;-3.264;2023-03-14T16:35:08;5;4;
78063;PMS5003;67429;51.596;-3.264;2023-03-14T16:37:33;9;7;
78063;PMS5003;67429;51.596;-3.264;2023-03-14T16:39:59;4;3;
78063;PMS5003;67429;51.596;-3.264;2023-03-14T16:42:25;2;2;